RJAW/IWO METAR and TAF weather

Enter ICAO airport designator
Station Type Date Time Source
RJAW METAR 2022/01/23 09:00 UTC NOAA

RJAW 230900Z 12013KT 9999 FEW020 BKN120 18/11 Q1017 RMK 2CU020 6AC120 A3006


Station Type Date Time Source
RJAW Decoded METAR 2022/01/23 09:00 UTC NOAA

Iwojima, Japan (RJAW) 24-47N 141-19E 116M
Jan 23, 2022 - 04:00 AM EST / 2022.01.23 0900 UTC
Wind: from the ESE (120 degrees) at 15 MPH (13 KT):0
Visibility: greater than 7 mile(s):0
Sky conditions: mostly cloudy
Temperature: 64 F (18 C)
Dew Point: 51 F (11 C)
Relative Humidity: 63%
Pressure (altimeter): 30.03 in. Hg (1017 hPa)
ob: RJAW 230900Z 12013KT 9999 FEW020 BKN120 18/11 Q1017 RMK 2CU020 6AC120 A3006
cycle: 9

Station Type Date Time Source
RJAW TAF UTC NOAA

Error!

Example: see airport list